sensor_id;sensor_type;location;lat;lon;timestamp;temperature;humidity
29575;DHT22;16507;51.046;6.406;2023-01-10T00:00:21;5.40;99.90
29575;DHT22;16507;51.046;6.406;2023-01-10T00:02:47;5.40;99.90
29575;DHT22;16507;51.046;6.406;2023-01-10T00:05:12;5.50;99.90
29575;DHT22;16507;51.046;6.406;2023-01-10T00:07:38;5.50;99.90
29575;DHT22;16507;51.046;6.406;2023-01-10T00:10:03;5.50;99.90
29575;DHT22;16507;51.046;6.406;2023-01-10T00:12:29;5.40;99.90
29575;DHT22;16507;51.046;6.406;2023-01-10T00:15:13;5.50;99.90
29575;DHT22;16507;51.046;6.406;2023-01-10T00:17:38;5.50;99.90
29575;DHT22;16507;51.046;6.406;2023-01-10T00:20:04;5.50;99.90
29575;DHT22;16507;51.046;6.406;2023-01-10T00:22:30;5.50;99.90
29575;DHT22;16507;51.046;6.406;2023-01-10T00:24:55;5.50;99.90
29575;DHT22;16507;51.046;6.406;2023-01-10T00:27:21;5.50;99.90
29575;DHT22;16507;51.046;6.406;2023-01-10T00:29:47;5.50;99.90
29575;DHT22;16507;51.046;6.406;2023-01-10T00:32:14;5.50;99.90
29575;DHT22;16507;51.046;6.406;2023-01-10T00:34:39;5.60;99.90
29575;DHT22;16507;51.046;6.406;2023-01-10T00:37:05;5.60;99.90
29575;DHT22;16507;51.046;6.406;2023-01-10T00:39:30;5.60;99.90
29575;DHT22;16507;51.046;6.406;2023-01-10T00:41:56;5.60;99.90
29575;DHT22;16507;51.046;6.406;2023-01-10T00:44:40;5.60;99.90
29575;DHT22;16507;51.046;6.406;2023-01-10T00:47:05;5.60;99.90
29575;DHT22;16507;51.046;6.406;2023-01-10T00:49:31;5.50;99.90
29575;DHT22;16507;51.046;6.406;2023-01-10T00:51:56;5.50;99.90
29575;DHT22;16507;51.046;6.406;2023-01-10T00:54:24;5.50;99.90
29575;DHT22;16507;51.046;6.406;2023-01-10T00:56:49;5.50;99.90
29575;DHT22;16507;51.046;6.406;2023-01-10T00:59:15;5.50;99.90
29575;DHT22;16507;51.046;6.406;2023-01-10T01:01:40;5.50;99.90
29575;DHT22;16507;51.046;6.406;2023-01-10T01:04:06;5.50;99.90
29575;DHT22;16507;51.046;6.406;2023-01-10T01:06:31;5.40;99.90
29575;DHT22;16507;51.046;6.406;2023-01-10T01:08:57;5.40;99.90
29575;DHT22;16507;51.046;6.406;2023-01-10T01:11:22;5.30;99.90
29575;DHT22;16507;51.046;6.406;2023-01-10T01:13:48;5.30;99.90
29575;DHT22;16507;51.046;6.406;2023-01-10T01:16:13;5.20;99.90
29575;DHT22;16507;51.046;6.406;2023-01-10T01:18:39;5.20;99.90
29575;DHT22;16507;51.046;6.406;2023-01-10T01:21:04;5.20;99.90
29575;DHT22;16507;51.046;6.406;2023-01-10T01:23:32;5.10;99.90
29575;DHT22;16507;51.046;6.406;2023-01-10T01:25:57;5.10;99.90
29575;DHT22;16507;51.046;6.406;2023-01-10T01:28:23;5.00;99.90
29575;DHT22;16507;51.046;6.406;2023-01-10T01:30:48;5.00;99.90
29575;DHT22;16507;51.046;6.406;2023-01-10T01:33:14;5.00;99.90
29575;DHT22;16507;51.046;6.406;2023-01-10T01:35:43;4.90;99.90
29575;DHT22;16507;51.046;6.406;2023-01-10T01:38:09;4.90;99.90
29575;DHT22;16507;51.046;6.406;2023-01-10T01:40:34;4.90;99.90
29575;DHT22;16507;51.046;6.406;2023-01-10T01:43:02;4.90;99.90
29575;DHT22;16507;51.046;6.406;2023-01-10T01:47:57;4.80;99.90
29575;DHT22;16507;51.046;6.406;2023-01-10T01:50:24;4.70;99.90
29575;DHT22;16507;51.046;6.406;2023-01-10T01:52:52;4.70;99.90
29575;DHT22;16507;51.046;6.406;2023-01-10T01:55:19;4.60;99.90
29575;DHT22;16507;51.046;6.406;2023-01-10T01:57:44;4.60;99.90
29575;DHT22;16507;51.046;6.406;2023-01-10T02:00:10;4.50;99.90
29575;DHT22;16507;51.046;6.406;2023-01-10T02:02:37;4.60;99.90
29575;DHT22;16507;51.046;6.406;2023-01-10T02:05:06;4.60;99.90
29575;DHT22;16507;51.046;6.406;2023-01-10T02:07:33;4.70;99.90
29575;DHT22;16507;51.046;6.406;2023-01-10T02:10:14;4.70;99.90
29575;DHT22;16507;51.046;6.406;2023-01-10T02:12:42;4.80;99.90
29575;DHT22;16507;51.046;6.406;2023-01-10T02:15:09;4.90;99.90
29575;DHT22;16507;51.046;6.406;2023-01-10T02:17:35;4.90;99.90
29575;DHT22;16507;51.046;6.406;2023-01-10T02:20:02;4.90;99.90
29575;DHT22;16507;51.046;6.406;2023-01-10T02:25:26;4.70;99.90
29575;DHT22;16507;51.046;6.406;2023-01-10T02:30:39;4.60;99.90
29575;DHT22;16507;51.046;6.406;2023-01-10T02:35:39;4.70;99.90
29575;DHT22;16507;51.046;6.406;2023-01-10T02:43:17;4.70;99.90
29575;DHT22;16507;51.046;6.406;2023-01-10T02:48:09;4.70;99.90
29575;DHT22;16507;51.046;6.406;2023-01-10T02:53:02;4.70;99.90
29575;DHT22;16507;51.046;6.406;2023-01-10T02:55:55;4.60;99.90
29575;DHT22;16507;51.046;6.406;2023-01-10T03:01:01;4.60;99.90
29575;DHT22;16507;51.046;6.406;2023-01-10T03:03:32;4.60;99.90
29575;DHT22;16507;51.046;6.406;2023-01-10T03:11:28;4.80;99.90
29575;DHT22;16507;51.046;6.406;2023-01-10T03:14:05;4.80;99.90
29575;DHT22;16507;51.046;6.406;2023-01-10T03:16:32;4.80;99.90
29575;DHT22;16507;51.046;6.406;2023-01-10T03:19:00;4.70;99.90
29575;DHT22;16507;51.046;6.406;2023-01-10T03:21:28;4.70;99.90
29575;DHT22;16507;51.046;6.406;2023-01-10T03:23:55;4.70;99.90
29575;DHT22;16507;51.046;6.406;2023-01-10T03:26:26;4.60;99.90
29575;DHT22;16507;51.046;6.406;2023-01-10T03:28:58;4.50;99.90
29575;DHT22;16507;51.046;6.406;2023-01-10T03:31:26;4.50;99.90
29575;DHT22;16507;51.046;6.406;2023-01-10T03:33:53;4.40;99.90
29575;DHT22;16507;51.046;6.406;2023-01-10T03:36:33;4.40;99.90
29575;DHT22;16507;51.046;6.406;2023-01-10T03:41:38;4.40;99.90
29575;DHT22;16507;51.046;6.406;2023-01-10T03:46:59;4.60;99.90
29575;DHT22;16507;51.046;6.406;2023-01-10T03:49:29;4.70;99.90
29575;DHT22;16507;51.046;6.406;2023-01-10T03:51:56;4.70;99.90
29575;DHT22;16507;51.046;6.406;2023-01-10T03:54:23;4.80;99.90
29575;DHT22;16507;51.046;6.406;2023-01-10T03:56:50;4.90;99.90
29575;DHT22;16507;51.046;6.406;2023-01-10T03:59:16;4.90;99.90
29575;DHT22;16507;51.046;6.406;2023-01-10T04:01:43;4.90;99.90
29575;DHT22;16507;51.046;6.406;2023-01-10T04:04:08;4.90;99.90
29575;DHT22;16507;51.046;6.406;2023-01-10T04:06:36;5.00;99.90
29575;DHT22;16507;51.046;6.406;2023-01-10T04:09:01;5.00;99.90
29575;DHT22;16507;51.046;6.406;2023-01-10T04:11:27;5.00;99.90
29575;DHT22;16507;51.046;6.406;2023-01-10T04:13:52;5.00;99.90
29575;DHT22;16507;51.046;6.406;2023-01-10T04:16:18;5.00;99.90
29575;DHT22;16507;51.046;6.406;2023-01-10T04:18:44;5.10;99.90
29575;DHT22;16507;51.046;6.406;2023-01-10T04:21:10;5.10;99.90
29575;DHT22;16507;51.046;6.406;2023-01-10T04:23:35;5.10;99.90
29575;DHT22;16507;51.046;6.406;2023-01-10T04:26:01;5.00;99.90
29575;DHT22;16507;51.046;6.406;2023-01-10T04:28:26;5.00;99.90
29575;DHT22;16507;51.046;6.406;2023-01-10T04:30:51;5.00;99.90
29575;DHT22;16507;51.046;6.406;2023-01-10T04:33:17;4.90;99.90
29575;DHT22;16507;51.046;6.406;2023-01-10T04:35:46;4.80;99.90
29575;DHT22;16507;51.046;6.406;2023-01-10T04:38:12;4.80;99.90
29575;DHT22;16507;51.046;6.406;2023-01-10T04:40:37;4.70;99.90
29575;DHT22;16507;51.046;6.406;2023-01-10T04:43:03;4.70;99.90
29575;DHT22;16507;51.046;6.406;2023-01-10T04:45:28;4.70;99.90
29575;DHT22;16507;51.046;6.406;2023-01-10T04:47:54;4.70;99.90
29575;DHT22;16507;51.046;6.406;2023-01-10T04:50:21;4.60;99.90
29575;DHT22;16507;51.046;6.406;2023-01-10T04:52:46;4.50;99.90
29575;DHT22;16507;51.046;6.406;2023-01-10T04:55:12;4.40;99.90
29575;DHT22;16507;51.046;6.406;2023-01-10T04:57:37;4.40;99.90
29575;DHT22;16507;51.046;6.406;2023-01-10T05:00:03;4.40;99.90
29575;DHT22;16507;51.046;6.406;2023-01-10T05:02:28;4.30;99.90
29575;DHT22;16507;51.046;6.406;2023-01-10T05:04:54;4.30;99.90
29575;DHT22;16507;51.046;6.406;2023-01-10T05:07:19;4.30;99.90
29575;DHT22;16507;51.046;6.406;2023-01-10T05:09:45;4.30;99.90
29575;DHT22;16507;51.046;6.406;2023-01-10T05:12:10;4.30;99.90
29575;DHT22;16507;51.046;6.406;2023-01-10T05:14:36;4.20;99.90
29575;DHT22;16507;51.046;6.406;2023-01-10T05:17:01;4.20;99.90
29575;DHT22;16507;51.046;6.406;2023-01-10T05:19:27;4.10;99.90
29575;DHT22;16507;51.046;6.406;2023-01-10T05:21:52;4.10;99.90
29575;DHT22;16507;51.046;6.406;2023-01-10T05:24:18;4.10;99.90
29575;DHT22;16507;51.046;6.406;2023-01-10T05:26:43;4.10;99.90
29575;DHT22;16507;51.046;6.406;2023-01-10T05:29:09;4.10;99.90
29575;DHT22;16507;51.046;6.406;2023-01-10T05:31:35;4.00;99.90
29575;DHT22;16507;51.046;6.406;2023-01-10T05:34:00;4.00;99.90
29575;DHT22;16507;51.046;6.406;2023-01-10T05:36:26;4.00;99.90
29575;DHT22;16507;51.046;6.406;2023-01-10T05:38:51;4.10;99.90
29575;DHT22;16507;51.046;6.406;2023-01-10T05:41:17;4.10;99.90
29575;DHT22;16507;51.046;6.406;2023-01-10T05:43:42;4.10;99.90
29575;DHT22;16507;51.046;6.406;2023-01-10T05:46:08;4.20;99.90
29575;DHT22;16507;51.046;6.406;2023-01-10T05:48:33;4.10;99.90
29575;DHT22;16507;51.046;6.406;2023-01-10T05:50:59;4.20;99.90
29575;DHT22;16507;51.046;6.406;2023-01-10T05:53:24;4.10;99.90
29575;DHT22;16507;51.046;6.406;2023-01-10T05:55:57;4.10;99.90
29575;DHT22;16507;51.046;6.406;2023-01-10T05:58:23;4.20;99.90
29575;DHT22;16507;51.046;6.406;2023-01-10T06:00:48;4.20;99.90
29575;DHT22;16507;51.046;6.406;2023-01-10T06:03:14;4.20;99.90
29575;DHT22;16507;51.046;6.406;2023-01-10T06:05:40;4.40;99.90
29575;DHT22;16507;51.046;6.406;2023-01-10T06:08:05;4.50;99.90
29575;DHT22;16507;51.046;6.406;2023-01-10T06:10:31;4.40;99.90
29575;DHT22;16507;51.046;6.406;2023-01-10T06:12:56;4.40;99.90
29575;DHT22;16507;51.046;6.406;2023-01-10T06:15:22;4.40;99.90
29575;DHT22;16507;51.046;6.406;2023-01-10T06:17:47;4.40;99.90
29575;DHT22;16507;51.046;6.406;2023-01-10T06:20:13;4.40;99.90
29575;DHT22;16507;51.046;6.406;2023-01-10T06:22:39;4.40;99.90
29575;DHT22;16507;51.046;6.406;2023-01-10T06:25:05;4.30;99.90
29575;DHT22;16507;51.046;6.406;2023-01-10T06:27:31;4.30;99.90
29575;DHT22;16507;51.046;6.406;2023-01-10T06:29:56;4.20;99.90
29575;DHT22;16507;51.046;6.406;2023-01-10T06:32:23;4.10;99.90
29575;DHT22;16507;51.046;6.406;2023-01-10T06:34:49;4.10;99.90
29575;DHT22;16507;51.046;6.406;2023-01-10T06:37:14;4.00;99.90
29575;DHT22;16507;51.046;6.406;2023-01-10T06:39:40;3.90;99.90
29575;DHT22;16507;51.046;6.406;2023-01-10T06:42:05;4.00;99.90
29575;DHT22;16507;51.046;6.406;2023-01-10T06:44:31;3.90;99.90
29575;DHT22;16507;51.046;6.406;2023-01-10T06:46:56;3.90;99.90
29575;DHT22;16507;51.046;6.406;2023-01-10T06:49:22;3.80;99.90
29575;DHT22;16507;51.046;6.406;2023-01-10T06:51:47;3.80;99.90
29575;DHT22;16507;51.046;6.406;2023-01-10T06:54:13;3.80;99.90
29575;DHT22;16507;51.046;6.406;2023-01-10T06:56:38;3.80;99.90
29575;DHT22;16507;51.046;6.406;2023-01-10T06:59:04;3.80;99.90
29575;DHT22;16507;51.046;6.406;2023-01-10T07:01:29;3.70;99.90
29575;DHT22;16507;51.046;6.406;2023-01-10T07:03:55;3.70;99.90
29575;DHT22;16507;51.046;6.406;2023-01-10T07:06:20;3.70;99.90
29575;DHT22;16507;51.046;6.406;2023-01-10T07:08:46;3.70;99.90
29575;DHT22;16507;51.046;6.406;2023-01-10T07:11:13;3.80;99.90
29575;DHT22;16507;51.046;6.406;2023-01-10T07:13:39;3.70;99.90
29575;DHT22;16507;51.046;6.406;2023-01-10T07:16:05;3.80;99.90
29575;DHT22;16507;51.046;6.406;2023-01-10T07:18:33;3.80;99.90
29575;DHT22;16507;51.046;6.406;2023-01-10T07:20:58;3.70;99.90
29575;DHT22;16507;51.046;6.406;2023-01-10T07:23:24;3.80;99.90
29575;DHT22;16507;51.046;6.406;2023-01-10T07:25:49;3.80;99.90
29575;DHT22;16507;51.046;6.406;2023-01-10T07:28:15;3.80;99.90
29575;DHT22;16507;51.046;6.406;2023-01-10T07:30:40;3.80;99.90
29575;DHT22;16507;51.046;6.406;2023-01-10T07:33:06;3.70;99.90
29575;DHT22;16507;51.046;6.406;2023-01-10T07:35:31;3.70;99.90
29575;DHT22;16507;51.046;6.406;2023-01-10T07:37:57;3.70;99.90
29575;DHT22;16507;51.046;6.406;2023-01-10T07:40:24;3.70;99.90
29575;DHT22;16507;51.046;6.406;2023-01-10T07:42:54;3.80;99.90
29575;DHT22;16507;51.046;6.406;2023-01-10T07:45:19;3.80;99.90
29575;DHT22;16507;51.046;6.406;2023-01-10T07:47:45;3.70;99.90
29575;DHT22;16507;51.046;6.406;2023-01-10T07:50:10;3.70;99.90
29575;DHT22;16507;51.046;6.406;2023-01-10T07:52:36;3.70;99.90
29575;DHT22;16507;51.046;6.406;2023-01-10T07:55:03;3.70;99.90
29575;DHT22;16507;51.046;6.406;2023-01-10T07:57:28;3.80;99.90
29575;DHT22;16507;51.046;6.406;2023-01-10T07:59:54;3.80;99.90
29575;DHT22;16507;51.046;6.406;2023-01-10T08:02:19;3.90;99.90
29575;DHT22;16507;51.046;6.406;2023-01-10T08:04:45;3.90;99.90
29575;DHT22;16507;51.046;6.406;2023-01-10T08:07:10;3.90;99.90
29575;DHT22;16507;51.046;6.406;2023-01-10T08:09:36;4.00;99.90
29575;DHT22;16507;51.046;6.406;2023-01-10T08:12:01;4.00;99.90
29575;DHT22;16507;51.046;6.406;2023-01-10T08:14:27;3.90;99.90
29575;DHT22;16507;51.046;6.406;2023-01-10T08:16:52;4.00;99.90
29575;DHT22;16507;51.046;6.406;2023-01-10T08:19:18;3.90;99.90
29575;DHT22;16507;51.046;6.406;2023-01-10T08:21:43;4.00;99.90
29575;DHT22;16507;51.046;6.406;2023-01-10T08:24:09;4.00;99.90
29575;DHT22;16507;51.046;6.406;2023-01-10T08:26:34;4.00;99.90
29575;DHT22;16507;51.046;6.406;2023-01-10T08:29:00;4.10;99.90
29575;DHT22;16507;51.046;6.406;2023-01-10T08:31:26;4.20;99.90
29575;DHT22;16507;51.046;6.406;2023-01-10T08:33:51;4.20;99.90
29575;DHT22;16507;51.046;6.406;2023-01-10T08:36:18;4.20;99.90
29575;DHT22;16507;51.046;6.406;2023-01-10T08:38:43;4.20;99.90
29575;DHT22;16507;51.046;6.406;2023-01-10T08:41:09;4.30;99.90
29575;DHT22;16507;51.046;6.406;2023-01-10T08:43:35;4.30;99.90
29575;DHT22;16507;51.046;6.406;2023-01-10T08:46:00;4.30;99.90
29575;DHT22;16507;51.046;6.406;2023-01-10T08:48:26;4.40;99.90
29575;DHT22;16507;51.046;6.406;2023-01-10T08:50:51;4.40;99.90
29575;DHT22;16507;51.046;6.406;2023-01-10T08:53:17;4.50;99.90
29575;DHT22;16507;51.046;6.406;2023-01-10T08:55:42;4.60;99.90
29575;DHT22;16507;51.046;6.406;2023-01-10T08:58:08;4.60;99.90
29575;DHT22;16507;51.046;6.406;2023-01-10T09:00:34;4.70;99.90
29575;DHT22;16507;51.046;6.406;2023-01-10T09:02:59;4.70;99.90
29575;DHT22;16507;51.046;6.406;2023-01-10T09:05:25;4.80;99.90
29575;DHT22;16507;51.046;6.406;2023-01-10T09:07:50;4.90;99.90
29575;DHT22;16507;51.046;6.406;2023-01-10T09:10:16;4.90;99.90
29575;DHT22;16507;51.046;6.406;2023-01-10T09:12:41;5.10;99.90
29575;DHT22;16507;51.046;6.406;2023-01-10T09:15:20;5.10;99.90
29575;DHT22;16507;51.046;6.406;2023-01-10T09:17:46;5.20;99.90
29575;DHT22;16507;51.046;6.406;2023-01-10T09:20:14;5.30;99.90
29575;DHT22;16507;51.046;6.406;2023-01-10T09:22:39;5.40;99.90
29575;DHT22;16507;51.046;6.406;2023-01-10T09:25:05;5.50;99.90
29575;DHT22;16507;51.046;6.406;2023-01-10T09:27:31;5.60;99.90
29575;DHT22;16507;51.046;6.406;2023-01-10T09:29:56;5.60;99.90
29575;DHT22;16507;51.046;6.406;2023-01-10T09:32:22;5.60;99.90
29575;DHT22;16507;51.046;6.406;2023-01-10T09:34:48;5.60;99.90
29575;DHT22;16507;51.046;6.406;2023-01-10T09:37:13;5.60;99.90
29575;DHT22;16507;51.046;6.406;2023-01-10T09:39:39;5.70;99.90
29575;DHT22;16507;51.046;6.406;2023-01-10T09:42:08;5.70;99.90
29575;DHT22;16507;51.046;6.406;2023-01-10T09:45:02;5.80;99.90
29575;DHT22;16507;51.046;6.406;2023-01-10T09:50:09;6.00;99.90
29575;DHT22;16507;51.046;6.406;2023-01-10T09:52:37;6.00;99.90
29575;DHT22;16507;51.046;6.406;2023-01-10T09:55:17;6.10;99.90
29575;DHT22;16507;51.046;6.406;2023-01-10T09:57:44;6.20;99.90
29575;DHT22;16507;51.046;6.406;2023-01-10T10:00:23;6.30;99.90
29575;DHT22;16507;51.046;6.406;2023-01-10T10:02:52;6.40;99.90
29575;DHT22;16507;51.046;6.406;2023-01-10T10:05:26;6.50;99.90
29575;DHT22;16507;51.046;6.406;2023-01-10T10:07:56;6.50;99.90
29575;DHT22;16507;51.046;6.406;2023-01-10T10:10:24;6.60;99.90
29575;DHT22;16507;51.046;6.406;2023-01-10T10:15:51;6.80;99.90
29575;DHT22;16507;51.046;6.406;2023-01-10T10:23:19;7.00;99.90
29575;DHT22;16507;51.046;6.406;2023-01-10T10:25:49;7.00;99.90
29575;DHT22;16507;51.046;6.406;2023-01-10T10:36:02;7.10;99.90
29575;DHT22;16507;51.046;6.406;2023-01-10T10:38:29;7.20;99.90
29575;DHT22;16507;51.046;6.406;2023-01-10T10:40:57;7.30;99.90
29575;DHT22;16507;51.046;6.406;2023-01-10T10:43:24;7.30;99.90
29575;DHT22;16507;51.046;6.406;2023-01-10T10:48:27;7.40;99.90
29575;DHT22;16507;51.046;6.406;2023-01-10T10:50:57;7.40;99.90
29575;DHT22;16507;51.046;6.406;2023-01-10T10:53:24;7.50;99.90
29575;DHT22;16507;51.046;6.406;2023-01-10T10:55:49;7.40;99.90
29575;DHT22;16507;51.046;6.406;2023-01-10T10:58:15;7.50;99.90
29575;DHT22;16507;51.046;6.406;2023-01-10T11:00:41;7.50;99.90
29575;DHT22;16507;51.046;6.406;2023-01-10T11:05:50;7.50;99.90
29575;DHT22;16507;51.046;6.406;2023-01-10T11:08:17;7.50;99.90
29575;DHT22;16507;51.046;6.406;2023-01-10T11:10:47;7.50;99.90
29575;DHT22;16507;51.046;6.406;2023-01-10T11:16:06;7.60;99.90
29575;DHT22;16507;51.046;6.406;2023-01-10T11:18:32;7.60;99.90
29575;DHT22;16507;51.046;6.406;2023-01-10T11:20:58;7.70;99.90
29575;DHT22;16507;51.046;6.406;2023-01-10T11:25:55;7.70;99.90
29575;DHT22;16507;51.046;6.406;2023-01-10T11:28:22;7.70;99.90
29575;DHT22;16507;51.046;6.406;2023-01-10T11:30:50;7.70;99.90
29575;DHT22;16507;51.046;6.406;2023-01-10T11:33:20;7.80;99.90
29575;DHT22;16507;51.046;6.406;2023-01-10T11:36:00;7.80;99.90
29575;DHT22;16507;51.046;6.406;2023-01-10T11:38:26;7.80;99.90
29575;DHT22;16507;51.046;6.406;2023-01-10T11:41:04;7.90;99.90
29575;DHT22;16507;51.046;6.406;2023-01-10T11:43:37;7.90;99.90
29575;DHT22;16507;51.046;6.406;2023-01-10T11:46:11;8.00;99.90
29575;DHT22;16507;51.046;6.406;2023-01-10T11:51:22;8.10;99.90
29575;DHT22;16507;51.046;6.406;2023-01-10T11:53:49;8.20;99.90
29575;DHT22;16507;51.046;6.406;2023-01-10T11:56:27;8.20;99.90
29575;DHT22;16507;51.046;6.406;2023-01-10T11:58:54;8.20;99.90
29575;DHT22;16507;51.046;6.406;2023-01-10T12:01:30;8.20;99.90
29575;DHT22;16507;51.046;6.406;2023-01-10T12:03:57;8.30;99.90
29575;DHT22;16507;51.046;6.406;2023-01-10T12:06:23;8.30;99.90
29575;DHT22;16507;51.046;6.406;2023-01-10T12:08:49;8.30;99.90
29575;DHT22;16507;51.046;6.406;2023-01-10T12:13:52;8.30;99.90
29575;DHT22;16507;51.046;6.406;2023-01-10T12:18:47;8.30;99.90
29575;DHT22;16507;51.046;6.406;2023-01-10T12:21:13;8.30;99.90
29575;DHT22;16507;51.046;6.406;2023-01-10T12:23:39;8.20;99.90
29575;DHT22;16507;51.046;6.406;2023-01-10T12:26:08;8.20;99.90
29575;DHT22;16507;51.046;6.406;2023-01-10T12:28:37;8.20;99.90
29575;DHT22;16507;51.046;6.406;2023-01-10T12:31:04;8.30;99.90
29575;DHT22;16507;51.046;6.406;2023-01-10T12:33:35;8.20;99.90
29575;DHT22;16507;51.046;6.406;2023-01-10T12:36:27;8.20;99.90
29575;DHT22;16507;51.046;6.406;2023-01-10T12:44:34;8.20;99.90
29575;DHT22;16507;51.046;6.406;2023-01-10T12:47:04;8.20;99.90
29575;DHT22;16507;51.046;6.406;2023-01-10T12:49:31;8.20;99.90
29575;DHT22;16507;51.046;6.406;2023-01-10T12:52:00;8.20;99.90
29575;DHT22;16507;51.046;6.406;2023-01-10T12:54:28;8.30;99.90
29575;DHT22;16507;51.046;6.406;2023-01-10T12:56:54;8.20;99.90
29575;DHT22;16507;51.046;6.406;2023-01-10T12:59:24;8.20;99.90
29575;DHT22;16507;51.046;6.406;2023-01-10T13:01:55;8.20;99.90
29575;DHT22;16507;51.046;6.406;2023-01-10T13:04:21;8.20;99.90
29575;DHT22;16507;51.046;6.406;2023-01-10T13:06:48;8.20;99.90
29575;DHT22;16507;51.046;6.406;2023-01-10T13:09:18;8.10;99.90
29575;DHT22;16507;51.046;6.406;2023-01-10T13:14:36;8.00;99.90
29575;DHT22;16507;51.046;6.406;2023-01-10T13:17:08;8.00;99.90
29575;DHT22;16507;51.046;6.406;2023-01-10T13:19:35;8.00;99.90
29575;DHT22;16507;51.046;6.406;2023-01-10T13:24:41;8.00;99.90
29575;DHT22;16507;51.046;6.406;2023-01-10T13:27:18;8.00;99.90
29575;DHT22;16507;51.046;6.406;2023-01-10T13:29:44;8.00;99.90
29575;DHT22;16507;51.046;6.406;2023-01-10T13:32:17;8.00;99.90
29575;DHT22;16507;51.046;6.406;2023-01-10T13:34:44;8.00;99.90
29575;DHT22;16507;51.046;6.406;2023-01-10T13:37:10;8.00;99.90
29575;DHT22;16507;51.046;6.406;2023-01-10T13:39:37;8.00;99.90
29575;DHT22;16507;51.046;6.406;2023-01-10T13:52:48;7.90;99.90
29575;DHT22;16507;51.046;6.406;2023-01-10T13:55:21;7.80;99.90
29575;DHT22;16507;51.046;6.406;2023-01-10T14:06:00;7.60;99.90
29575;DHT22;16507;51.046;6.406;2023-01-10T14:08:26;7.70;99.90
29575;DHT22;16507;51.046;6.406;2023-01-10T14:11:06;7.70;99.90
29575;DHT22;16507;51.046;6.406;2023-01-10T14:13:33;7.60;99.90
29575;DHT22;16507;51.046;6.406;2023-01-10T14:15:58;7.60;99.90
29575;DHT22;16507;51.046;6.406;2023-01-10T14:18:26;7.60;99.90
29575;DHT22;16507;51.046;6.406;2023-01-10T14:20:59;7.60;99.90
29575;DHT22;16507;51.046;6.406;2023-01-10T14:23:27;7.60;99.90
29575;DHT22;16507;51.046;6.406;2023-01-10T14:25:54;7.60;99.90
29575;DHT22;16507;51.046;6.406;2023-01-10T14:28:21;7.50;99.90
29575;DHT22;16507;51.046;6.406;2023-01-10T14:30:57;7.50;99.90
29575;DHT22;16507;51.046;6.406;2023-01-10T14:33:24;7.60;99.90
29575;DHT22;16507;51.046;6.406;2023-01-10T14:35:51;7.50;99.90
29575;DHT22;16507;51.046;6.406;2023-01-10T14:38:21;7.50;99.90
29575;DHT22;16507;51.046;6.406;2023-01-10T14:40:49;7.50;99.90
29575;DHT22;16507;51.046;6.406;2023-01-10T14:43:15;7.50;99.90
29575;DHT22;16507;51.046;6.406;2023-01-10T14:45:43;7.50;99.90
29575;DHT22;16507;51.046;6.406;2023-01-10T14:48:21;7.50;99.90
29575;DHT22;16507;51.046;6.406;2023-01-10T14:50:47;7.50;99.90
29575;DHT22;16507;51.046;6.406;2023-01-10T14:53:34;7.50;99.90
29575;DHT22;16507;51.046;6.406;2023-01-10T14:55:59;7.60;99.90
29575;DHT22;16507;51.046;6.406;2023-01-10T14:58:24;7.50;99.90
29575;DHT22;16507;51.046;6.406;2023-01-10T15:00:50;7.40;99.90
29575;DHT22;16507;51.046;6.406;2023-01-10T15:03:20;7.40;99.90
29575;DHT22;16507;51.046;6.406;2023-01-10T15:05:47;7.30;99.90
29575;DHT22;16507;51.046;6.406;2023-01-10T15:08:15;7.10;99.90
29575;DHT22;16507;51.046;6.406;2023-01-10T15:10:42;6.80;99.90
29575;DHT22;16507;51.046;6.406;2023-01-10T15:13:09;6.50;99.90
29575;DHT22;16507;51.046;6.406;2023-01-10T15:15:37;6.50;99.90
29575;DHT22;16507;51.046;6.406;2023-01-10T15:18:46;6.50;99.90
29575;DHT22;16507;51.046;6.406;2023-01-10T15:20:52;6.60;99.90
29575;DHT22;16507;51.046;6.406;2023-01-10T15:23:18;6.60;99.90
29575;DHT22;16507;51.046;6.406;2023-01-10T15:25:44;6.60;99.90
29575;DHT22;16507;51.046;6.406;2023-01-10T15:28:13;6.60;99.90
29575;DHT22;16507;51.046;6.406;2023-01-10T15:30:39;6.60;99.90
29575;DHT22;16507;51.046;6.406;2023-01-10T15:33:07;6.60;99.90
29575;DHT22;16507;51.046;6.406;2023-01-10T15:35:34;6.60;99.90
29575;DHT22;16507;51.046;6.406;2023-01-10T15:40:31;6.60;99.90
29575;DHT22;16507;51.046;6.406;2023-01-10T15:43:10;6.60;99.90
29575;DHT22;16507;51.046;6.406;2023-01-10T15:45:37;6.60;99.90
29575;DHT22;16507;51.046;6.406;2023-01-10T15:48:04;6.50;99.90
29575;DHT22;16507;51.046;6.406;2023-01-10T15:50:31;6.40;99.90
29575;DHT22;16507;51.046;6.406;2023-01-10T15:53:01;6.40;99.90
29575;DHT22;16507;51.046;6.406;2023-01-10T15:55:34;6.30;99.90
29575;DHT22;16507;51.046;6.406;2023-01-10T15:58:01;6.20;99.90
29575;DHT22;16507;51.046;6.406;2023-01-10T16:00:26;6.20;99.90
29575;DHT22;16507;51.046;6.406;2023-01-10T16:02:53;6.20;99.90
29575;DHT22;16507;51.046;6.406;2023-01-10T16:05:20;6.20;99.90
29575;DHT22;16507;51.046;6.406;2023-01-10T16:07:46;6.20;99.90
29575;DHT22;16507;51.046;6.406;2023-01-10T16:10:17;6.30;99.90
29575;DHT22;16507;51.046;6.406;2023-01-10T16:12:43;6.30;99.90
29575;DHT22;16507;51.046;6.406;2023-01-10T16:15:28;6.30;99.90
29575;DHT22;16507;51.046;6.406;2023-01-10T16:17:54;6.20;99.90
29575;DHT22;16507;51.046;6.406;2023-01-10T16:20:22;6.20;99.90
29575;DHT22;16507;51.046;6.406;2023-01-10T16:22:50;6.20;99.90
29575;DHT22;16507;51.046;6.406;2023-01-10T16:25:17;6.20;99.90
29575;DHT22;16507;51.046;6.406;2023-01-10T16:27:44;6.20;99.90
29575;DHT22;16507;51.046;6.406;2023-01-10T16:30:28;6.10;99.90
29575;DHT22;16507;51.046;6.406;2023-01-10T16:32:54;6.20;99.90
29575;DHT22;16507;51.046;6.406;2023-01-10T16:35:21;6.10;99.90
29575;DHT22;16507;51.046;6.406;2023-01-10T16:37:47;6.20;99.90
29575;DHT22;16507;51.046;6.406;2023-01-10T16:40:20;6.10;99.90
29575;DHT22;16507;51.046;6.406;2023-01-10T16:42:46;6.10;99.90
29575;DHT22;16507;51.046;6.406;2023-01-10T16:45:30;6.10;99.90
29575;DHT22;16507;51.046;6.406;2023-01-10T16:47:56;6.10;99.90
29575;DHT22;16507;51.046;6.406;2023-01-10T16:50:21;6.10;99.90
29575;DHT22;16507;51.046;6.406;2023-01-10T16:52:47;6.10;99.90
29575;DHT22;16507;51.046;6.406;2023-01-10T16:55:15;6.10;99.90
29575;DHT22;16507;51.046;6.406;2023-01-10T16:57:42;6.10;99.90
29575;DHT22;16507;51.046;6.406;2023-01-10T17:00:14;6.10;99.90
29575;DHT22;16507;51.046;6.406;2023-01-10T17:02:40;6.10;99.90
29575;DHT22;16507;51.046;6.406;2023-01-10T17:05:08;6.00;99.90
29575;DHT22;16507;51.046;6.406;2023-01-10T17:07:34;6.00;99.90
29575;DHT22;16507;51.046;6.406;2023-01-10T17:09:59;6.00;99.90
29575;DHT22;16507;51.046;6.406;2023-01-10T17:12:29;6.00;99.90
29575;DHT22;16507;51.046;6.406;2023-01-10T17:14:56;6.00;99.90
29575;DHT22;16507;51.046;6.406;2023-01-10T17:17:21;6.00;99.90
29575;DHT22;16507;51.046;6.406;2023-01-10T17:19:47;6.00;99.90
29575;DHT22;16507;51.046;6.406;2023-01-10T17:22:13;6.00;99.90
29575;DHT22;16507;51.046;6.406;2023-01-10T17:24:38;6.00;99.90
29575;DHT22;16507;51.046;6.406;2023-01-10T17:27:04;6.00;99.90
29575;DHT22;16507;51.046;6.406;2023-01-10T17:29:30;6.00;99.90